Time;durP1;ratioP1;P1;durP2;ratioP2;P2;SDS_P1;SDS_P2;PMS_P1;PMS_P2;Temp;Humidity;BMP_temperature;BMP_pressure;BME280_temperature;BME280_humidity;BME280_pressure;Samples;Min_cycle;Max_cycle;Signal;HPM_P1;HPM_P2
2023/04/25 00:02:16;;;;;;;3.93;2.07;;;9.80;99.90;;;;;;5099328;28;20490;-51
2023/04/25 00:04:44;;;;;;;6.87;2.37;;;9.70;99.90;;;;;;5099103;28;20434;-55
2023/04/25 00:07:11;;;;;;;2.13;1.83;;;9.70;99.90;;;;;;5098584;28;20463;-53
2023/04/25 00:09:38;;;;;;;3.97;1.53;;;9.70;99.90;;;;;;5099131;28;20437;-55
2023/04/25 00:12:05;;;;;;;4.90;2.30;;;9.70;99.90;;;;;;5098886;28;20453;-55
2023/04/25 00:14:33;;;;;;;1.80;1.33;;;9.60;99.90;;;;;;5098564;28;20465;-49
2023/04/25 00:17:00;;;;;;;2.70;2.03;;;9.60;99.90;;;;;;5098625;28;20465;-51
2023/04/25 00:19:28;;;;;;;1.90;1.53;;;9.60;99.90;;;;;;5098356;28;20461;-50
2023/04/25 00:21:56;;;;;;;3.13;2.10;;;9.60;99.90;;;;;;5098824;28;20473;-53
2023/04/25 00:24:23;;;;;;;7.00;1.87;;;9.60;99.90;;;;;;5098401;28;20489;-50
2023/04/25 00:26:50;;;;;;;2.30;1.30;;;9.50;99.90;;;;;;5098754;28;20419;-52
2023/04/25 00:29:16;;;;;;;5.60;1.87;;;9.50;99.90;;;;;;5098264;28;20450;-50
2023/04/25 00:31:43;;;;;;;3.90;1.70;;;9.50;99.90;;;;;;5098270;28;20442;-49
2023/04/25 00:34:10;;;;;;;7.97;1.93;;;9.50;99.90;;;;;;5098402;28;20433;-55
2023/04/25 00:36:37;;;;;;;5.80;2.07;;;9.50;99.90;;;;;;5098373;28;20501;-52
2023/04/25 00:39:06;;;;;;;2.83;1.83;;;9.50;99.90;;;;;;5098256;28;20546;-55
2023/04/25 00:41:34;;;;;;;4.33;1.60;;;9.50;99.90;;;;;;5098305;28;20470;-54
2023/04/25 00:44:02;;;;;;;2.97;2.17;;;9.60;99.90;;;;;;5098205;28;20442;-53
2023/04/25 00:46:29;;;;;;;2.57;1.40;;;9.60;99.90;;;;;;5098668;28;20447;-52
2023/04/25 00:48:56;;;;;;;3.33;1.57;;;9.60;99.90;;;;;;5097747;28;20426;-50
2023/04/25 00:51:24;;;;;;;3.00;1.93;;;9.60;99.90;;;;;;5097949;28;20462;-57
2023/04/25 00:53:52;;;;;;;7.80;1.73;;;9.60;99.90;;;;;;5097805;28;20468;-53
2023/04/25 00:56:21;;;;;;;4.70;2.00;;;9.70;99.90;;;;;;5098232;28;20517;-55
2023/04/25 00:58:50;;;;;;;4.20;1.90;;;9.70;99.90;;;;;;5097831;28;20497;-51
2023/04/25 01:01:17;;;;;;;5.00;1.77;;;9.80;99.90;;;;;;5097694;28;20450;-55
2023/04/25 01:03:46;;;;;;;3.77;1.87;;;9.80;99.90;;;;;;5097910;28;20458;-52
2023/04/25 01:06:13;;;;;;;5.23;1.73;;;9.90;99.90;;;;;;5097768;28;20449;-55
2023/04/25 01:08:43;;;;;;;4.30;2.33;;;9.80;99.90;;;;;;5097162;28;20446;-54
2023/04/25 01:11:10;;;;;;;3.00;2.00;;;9.90;99.90;;;;;;5097197;28;20901;-52
2023/04/25 01:13:38;;;;;;;2.90;1.47;;;9.80;99.90;;;;;;5097148;28;20461;-54
2023/04/25 01:16:07;;;;;;;2.27;1.83;;;9.80;99.90;;;;;;5096703;28;20457;-54
2023/04/25 01:18:34;;;;;;;5.50;2.17;;;9.70;99.90;;;;;;5096629;28;20485;-52
2023/04/25 01:21:10;;;;;;;3.00;2.70;;;9.70;99.90;;;;;;5096253;28;20474;-54
2023/04/25 01:23:38;;;;;;;8.43;3.13;;;9.70;99.90;;;;;;5097732;28;20422;-54
2023/04/25 01:26:05;;;;;;;3.20;2.63;;;9.60;99.90;;;;;;5097464;28;20458;-55
2023/04/25 01:28:33;;;;;;;4.47;2.00;;;9.60;99.90;;;;;;5097307;28;20422;-49
2023/04/25 01:31:02;;;;;;;5.63;2.77;;;9.60;99.90;;;;;;5097318;28;20438;-52
2023/04/25 01:33:30;;;;;;;4.03;1.97;;;9.60;99.90;;;;;;5097130;28;20431;-54
2023/04/25 01:35:59;;;;;;;3.93;1.60;;;9.60;99.90;;;;;;5097228;28;20465;-55
2023/04/25 01:38:28;;;;;;;5.40;2.80;;;9.60;99.90;;;;;;5097134;28;20466;-53
2023/04/25 01:40:55;;;;;;;9.40;2.70;;;9.60;99.90;;;;;;5097333;28;20470;-57
2023/04/25 01:43:22;;;;;;;6.80;3.47;;;9.60;99.90;;;;;;5097193;28;20537;-55
2023/04/25 01:45:51;;;;;;;14.90;8.00;;;9.70;99.90;;;;;;5097092;28;20418;-55
2023/04/25 01:48:18;;;;;;;16.40;10.53;;;9.70;99.90;;;;;;5097667;28;20482;-54
2023/04/25 01:50:45;;;;;;;11.50;7.33;;;9.60;99.90;;;;;;5097459;28;20434;-53
2023/04/25 01:53:13;;;;;;;19.13;9.17;;;9.70;99.90;;;;;;5097480;28;20446;-50
2023/04/25 01:55:42;;;;;;;10.10;7.30;;;9.70;99.90;;;;;;5097296;28;20474;-54
2023/04/25 01:58:12;;;;;;;12.53;8.50;;;9.70;99.90;;;;;;5097202;28;20435;-53
2023/04/25 02:00:40;;;;;;;11.97;6.23;;;9.70;99.90;;;;;;5096910;28;20466;-51
2023/04/25 02:03:08;;;;;;;13.77;6.00;;;9.70;99.90;;;;;;5097368;28;20527;-49
2023/04/25 02:05:36;;;;;;;3.73;3.30;;;9.60;99.90;;;;;;5097032;28;20459;-50
2023/04/25 02:08:04;;;;;;;11.73;4.70;;;9.60;99.90;;;;;;5097151;28;20446;-53
2023/04/25 02:10:31;;;;;;;16.43;7.00;;;9.60;99.90;;;;;;5096551;28;20486;-52
2023/04/25 02:12:59;;;;;;;10.73;4.63;;;9.70;99.90;;;;;;5096817;28;20427;-54
2023/04/25 02:15:26;;;;;;;8.83;4.10;;;9.60;99.90;;;;;;5096296;28;20478;-48
2023/04/25 02:17:53;;;;;;;8.00;3.67;;;9.60;99.90;;;;;;5096675;28;20445;-51
2023/04/25 02:20:22;;;;;;;4.57;2.60;;;9.60;99.90;;;;;;5096475;28;20446;-54
2023/04/25 02:22:48;;;;;;;4.07;2.60;;;9.60;99.90;;;;;;5096486;28;20486;-54
2023/04/25 02:25:16;;;;;;;2.97;2.67;;;9.60;99.90;;;;;;5096528;28;20434;-56
2023/04/25 02:27:44;;;;;;;3.27;2.97;;;9.60;99.90;;;;;;5096182;28;20493;-57
2023/04/25 02:30:12;;;;;;;3.90;2.77;;;9.60;99.90;;;;;;5096290;28;20442;-53
2023/04/25 02:32:39;;;;;;;4.70;3.20;;;9.70;99.90;;;;;;5095880;28;20439;-50
2023/04/25 02:35:07;;;;;;;4.70;2.20;;;9.70;99.90;;;;;;5096335;28;20430;-52
2023/04/25 02:37:38;;;;;;;5.17;3.10;;;9.70;99.90;;;;;;5096489;28;20467;-53
2023/04/25 02:40:06;;;;;;;9.20;2.37;;;9.70;99.90;;;;;;5096459;28;20419;-55
2023/04/25 02:42:33;;;;;;;5.60;3.23;;;9.60;99.90;;;;;;5096393;28;20454;-53
2023/04/25 02:45:00;;;;;;;10.13;2.63;;;9.60;99.90;;;;;;5096016;28;20450;-51
2023/04/25 02:47:29;;;;;;;5.60;3.03;;;9.60;99.90;;;;;;5096315;28;20430;-54
2023/04/25 02:49:55;;;;;;;4.43;2.70;;;9.50;99.90;;;;;;5096707;28;20446;-51
2023/04/25 02:52:22;;;;;;;15.40;3.40;;;9.50;99.90;;;;;;5096683;28;20427;-51
2023/04/25 02:54:49;;;;;;;6.00;2.23;;;9.50;99.90;;;;;;5096405;28;20439;-54
2023/04/25 02:57:16;;;;;;;5.27;2.90;;;9.50;99.90;;;;;;5099934;28;20474;-54
2023/04/25 02:59:43;;;;;;;5.93;2.37;;;9.50;99.90;;;;;;5100582;28;20891;-57
2023/04/25 03:02:10;;;;;;;7.43;3.10;;;9.50;99.90;;;;;;5100129;28;20779;-55
2023/04/25 03:04:38;;;;;;;5.30;2.77;;;9.50;99.90;;;;;;5100193;28;20464;-52
2023/04/25 03:07:05;;;;;;;6.30;4.00;;;9.50;99.90;;;;;;5099737;28;20484;-52
2023/04/25 03:09:32;;;;;;;5.13;2.90;;;9.50;99.90;;;;;;5100187;28;20442;-54
2023/04/25 03:11:59;;;;;;;6.40;3.00;;;9.50;99.90;;;;;;5099662;28;20441;-55
2023/04/25 03:14:26;;;;;;;3.07;2.77;;;9.60;99.90;;;;;;5099594;28;20514;-53
2023/04/25 03:16:52;;;;;;;3.53;2.83;;;9.50;99.90;;;;;;5100090;28;20477;-55
2023/04/25 03:19:20;;;;;;;4.83;2.90;;;9.50;99.90;;;;;;5099770;28;20429;-54
2023/04/25 03:21:48;;;;;;;8.17;3.20;;;9.50;99.90;;;;;;5099780;28;20466;-52
2023/04/25 03:24:15;;;;;;;7.93;3.10;;;9.50;99.90;;;;;;5099270;28;20482;-51
2023/04/25 03:26:42;;;;;;;7.13;3.70;;;9.50;99.90;;;;;;5099853;28;20441;-52
2023/04/25 03:29:09;;;;;;;13.80;3.47;;;9.50;99.90;;;;;;5099796;28;20467;-54
2023/04/25 03:31:36;;;;;;;4.90;2.33;;;9.50;99.90;;;;;;5099657;28;20426;-54
2023/04/25 03:34:03;;;;;;;7.83;3.57;;;9.50;99.90;;;;;;5099494;28;20448;-55
2023/04/25 03:36:30;;;;;;;4.43;2.20;;;9.50;99.90;;;;;;5099323;28;20482;-57
2023/04/25 03:38:58;;;;;;;4.73;3.33;;;9.40;99.90;;;;;;5100077;28;20438;-55
2023/04/25 03:41:25;;;;;;;5.60;2.87;;;9.40;99.90;;;;;;5099562;28;20431;-56
2023/04/25 03:43:52;;;;;;;7.73;2.87;;;9.40;99.90;;;;;;5099431;28;20422;-50
2023/04/25 03:46:19;;;;;;;3.43;2.87;;;9.30;99.90;;;;;;5099279;28;20450;-59
2023/04/25 03:48:46;;;;;;;5.60;2.70;;;9.30;99.90;;;;;;5098807;28;20482;-57
2023/04/25 03:51:13;;;;;;;4.73;3.43;;;9.20;99.90;;;;;;5099238;28;20494;-57
2023/04/25 03:53:40;;;;;;;9.03;3.60;;;9.20;99.90;;;;;;5099473;28;20427;-51
2023/04/25 03:56:09;;;;;;;5.10;2.80;;;9.20;99.90;;;;;;5099251;28;20481;-55
2023/04/25 03:58:36;;;;;;;4.80;2.63;;;9.20;99.90;;;;;;5099805;28;20450;-55
2023/04/25 04:01:07;;;;;;;4.10;2.70;;;9.20;99.90;;;;;;5099512;28;20466;-53
2023/04/25 04:03:34;;;;;;;8.87;3.53;;;9.20;99.90;;;;;;5099289;28;20459;-56
2023/04/25 04:06:00;;;;;;;8.50;3.33;;;9.20;99.90;;;;;;5099163;28;20469;-56
2023/04/25 04:08:27;;;;;;;6.47;3.60;;;9.30;99.90;;;;;;5098405;28;20453;-56
2023/04/25 04:10:54;;;;;;;4.40;3.10;;;9.30;99.90;;;;;;5099065;28;20454;-60
2023/04/25 04:13:22;;;;;;;4.33;3.03;;;9.30;99.90;;;;;;5098623;28;20443;-52
2023/04/25 04:15:49;;;;;;;4.30;3.30;;;9.40;99.90;;;;;;5098721;28;20489;-55
2023/04/25 04:18:16;;;;;;;5.43;2.90;;;9.30;99.90;;;;;;5098605;28;20439;-56
2023/04/25 04:20:43;;;;;;;4.40;3.23;;;9.30;99.90;;;;;;5098143;28;20442;-52
2023/04/25 04:23:10;;;;;;;6.50;3.10;;;9.30;99.90;;;;;;5098411;28;20429;-55
2023/04/25 04:25:37;;;;;;;3.00;2.60;;;9.30;99.90;;;;;;5098141;28;20526;-54
2023/04/25 04:28:04;;;;;;;8.20;3.00;;;9.30;99.90;;;;;;5098465;28;20435;-55
2023/04/25 04:30:36;;;;;;;9.87;2.90;;;9.30;99.90;;;;;;5098646;28;20469;-56
2023/04/25 04:33:03;;;;;;;4.40;2.80;;;9.30;99.90;;;;;;5098344;28;20886;-55
2023/04/25 04:35:30;;;;;;;6.53;2.93;;;9.30;99.90;;;;;;5098527;28;20442;-53
2023/04/25 04:37:57;;;;;;;6.47;3.20;;;9.30;99.90;;;;;;5097911;28;20509;-56
2023/04/25 04:40:25;;;;;;;4.50;2.53;;;9.30;99.90;;;;;;5098247;28;20449;-54
2023/04/25 04:42:53;;;;;;;6.23;2.83;;;9.30;99.90;;;;;;5098584;28;20462;-59
2023/04/25 04:45:20;;;;;;;5.83;3.10;;;9.30;99.90;;;;;;5098748;28;20435;-56
2023/04/25 04:47:49;;;;;;;6.60;3.10;;;9.30;99.90;;;;;;5098044;28;20510;-55
2023/04/25 04:50:16;;;;;;;5.97;3.40;;;9.30;99.90;;;;;;5098148;28;20435;-57
2023/04/25 04:52:46;;;;;;;3.33;2.80;;;9.30;99.90;;;;;;5097811;28;20450;-53
2023/04/25 04:55:12;;;;;;;7.63;3.40;;;9.40;99.90;;;;;;5098046;28;20430;-56
2023/04/25 04:57:39;;;;;;;4.97;2.93;;;9.40;99.90;;;;;;5098278;28;20462;-52
2023/04/25 05:00:10;;;;;;;5.90;2.63;;;9.40;99.90;;;;;;5097963;28;20469;-57
2023/04/25 05:02:38;;;;;;;4.30;3.27;;;9.40;99.90;;;;;;5097786;28;20453;-56
2023/04/25 05:05:07;;;;;;;12.57;3.30;;;9.50;99.90;;;;;;5097697;28;20462;-56
2023/04/25 05:07:34;;;;;;;3.67;2.40;;;9.50;99.90;;;;;;5097470;28;20482;-57
2023/04/25 05:10:01;;;;;;;3.63;2.87;;;9.50;99.90;;;;;;5097451;28;20482;-56
2023/04/25 05:12:28;;;;;;;7.33;3.93;;;9.50;99.90;;;;;;5097493;28;20431;-53
2023/04/25 05:14:55;;;;;;;3.97;2.70;;;9.50;99.90;;;;;;5097333;28;20465;-56
2023/04/25 05:17:21;;;;;;;10.90;3.80;;;9.60;99.90;;;;;;5096745;28;20496;-56
2023/04/25 05:19:48;;;;;;;8.77;4.23;;;9.50;99.90;;;;;;5096089;28;20438;-57
2023/04/25 05:22:17;;;;;;;10.57;3.20;;;9.50;99.90;;;;;;5096791;28;20526;-57
2023/04/25 05:24:44;;;;;;;5.77;3.70;;;9.50;99.90;;;;;;5097558;28;20414;-55
2023/04/25 05:27:10;;;;;;;8.30;3.13;;;9.50;99.90;;;;;;5097239;28;20474;-54
2023/04/25 05:29:37;;;;;;;6.23;3.63;;;9.60;99.90;;;;;;5097214;28;20434;-57
2023/04/25 05:32:06;;;;;;;8.40;3.70;;;9.70;99.90;;;;;;5096580;28;20449;-56
2023/04/25 05:34:34;;;;;;;5.83;3.87;;;9.70;99.90;;;;;;5097043;28;20427;-56
2023/04/25 05:37:01;;;;;;;8.50;3.47;;;9.70;99.90;;;;;;5097198;28;20830;-48
2023/04/25 05:39:29;;;;;;;9.00;3.50;;;9.70;99.90;;;;;;5097092;28;20459;-53
2023/04/25 05:41:56;;;;;;;13.50;4.00;;;9.70;99.90;;;;;;5096812;28;20596;-54
2023/04/25 05:44:23;;;;;;;5.03;3.00;;;9.70;99.90;;;;;;5096398;28;20474;-58
2023/04/25 05:46:50;;;;;;;5.20;2.20;;;9.70;99.90;;;;;;5096513;28;20511;-58
2023/04/25 05:49:17;;;;;;;11.10;4.03;;;9.80;99.90;;;;;;5096876;28;20463;-52
2023/04/25 05:51:44;;;;;;;6.33;3.67;;;9.80;99.90;;;;;;5096667;28;20431;-55
2023/04/25 05:54:11;;;;;;;11.53;3.70;;;9.70;99.90;;;;;;5096591;28;20442;-57
2023/04/25 05:56:39;;;;;;;6.40;3.10;;;9.60;99.90;;;;;;5095375;28;20520;-54
2023/04/25 05:59:06;;;;;;;10.57;3.10;;;9.60;99.90;;;;;;5096838;28;20430;-56
2023/04/25 06:01:33;;;;;;;2.73;2.50;;;9.60;99.90;;;;;;5096775;28;20450;-55
2023/04/25 06:04:02;;;;;;;7.37;3.30;;;9.70;99.90;;;;;;5095721;28;20438;-50
2023/04/25 06:06:29;;;;;;;5.00;3.30;;;9.60;99.90;;;;;;5095211;28;20454;-56
2023/04/25 06:08:56;;;;;;;8.17;3.67;;;9.60;99.90;;;;;;5095501;28;20454;-56
2023/04/25 06:11:23;;;;;;;3.70;2.47;;;9.60;99.90;;;;;;5096386;28;20468;-56
2023/04/25 06:13:51;;;;;;;4.30;2.37;;;9.60;99.90;;;;;;5096387;28;20875;-55
2023/04/25 06:16:18;;;;;;;8.30;3.97;;;9.50;99.90;;;;;;5096431;28;20430;-52
2023/04/25 06:18:45;;;;;;;7.00;3.90;;;9.50;99.90;;;;;;5095367;28;20457;-56
2023/04/25 06:21:11;;;;;;;6.03;3.43;;;9.50;99.90;;;;;;5094998;28;20502;-54
2023/04/25 06:23:38;;;;;;;5.50;3.47;;;9.50;99.90;;;;;;5095258;28;20447;-54
2023/04/25 06:26:05;;;;;;;6.20;3.10;;;9.50;99.90;;;;;;5095809;28;20450;-52
2023/04/25 06:28:32;;;;;;;8.80;3.07;;;9.50;99.90;;;;;;5095897;28;20462;-55
2023/04/25 06:31:02;;;;;;;6.97;3.93;;;9.60;99.90;;;;;;5096328;28;20469;-57
2023/04/25 06:33:28;;;;;;;6.00;3.87;;;9.60;99.90;;;;;;5096324;28;20430;-52
2023/04/25 06:35:55;;;;;;;6.73;3.73;;;9.60;99.90;;;;;;5096371;28;20445;-56
2023/04/25 06:38:22;;;;;;;5.13;3.80;;;9.60;99.90;;;;;;5096345;28;20497;-58
2023/04/25 06:40:49;;;;;;;4.50;3.20;;;9.60;99.90;;;;;;5096655;28;20486;-55
2023/04/25 06:43:16;;;;;;;5.30;4.00;;;9.60;99.90;;;;;;5096922;28;20438;-56
2023/04/25 06:45:43;;;;;;;6.90;3.47;;;9.60;99.90;;;;;;5096511;28;20529;-52
2023/04/25 06:48:11;;;;;;;4.80;3.73;;;9.60;99.90;;;;;;5096352;28;20426;-49
2023/04/25 06:50:38;;;;;;;4.80;3.10;;;9.60;99.90;;;;;;5096511;28;20478;-56
2023/04/25 06:53:05;;;;;;;8.37;3.20;;;9.60;99.90;;;;;;5096777;28;20437;-57
2023/04/25 06:55:32;;;;;;;7.70;3.10;;;9.60;99.90;;;;;;5094643;28;20446;-53
2023/04/25 06:57:59;;;;;;;5.30;2.93;;;9.60;99.90;;;;;;5096208;28;20475;-55
2023/04/25 07:00:26;;;;;;;6.90;3.93;;;9.50;99.90;;;;;;5096222;28;20467;-55
2023/04/25 07:02:53;;;;;;;5.87;3.30;;;9.50;99.90;;;;;;5096557;28;20466;-56
2023/04/25 07:05:21;;;;;;;7.63;3.40;;;9.50;99.90;;;;;;5096028;28;20454;-55
2023/04/25 07:07:48;;;;;;;17.47;3.43;;;9.50;99.90;;;;;;5096417;28;20462;-54
2023/04/25 07:10:15;;;;;;;4.47;2.17;;;9.60;99.90;;;;;;5095874;28;20426;-52
2023/04/25 07:12:41;;;;;;;5.80;3.03;;;9.60;99.90;;;;;;5096242;28;20423;-55
2023/04/25 07:15:10;;;;;;;4.27;2.70;;;9.50;99.90;;;;;;5096256;28;20450;-55
2023/04/25 07:17:37;;;;;;;6.93;3.43;;;9.50;99.90;;;;;;5095763;28;20478;-54
2023/04/25 07:20:05;;;;;;;4.53;3.07;;;9.60;99.90;;;;;;5095646;28;20489;-53
2023/04/25 07:22:34;;;;;;;6.07;2.97;;;9.70;99.90;;;;;;5095451;28;20439;-56
2023/04/25 07:25:04;;;;;;;4.00;2.87;;;9.70;99.90;;;;;;5096129;28;20453;-55
2023/04/25 07:27:31;;;;;;;4.90;3.00;;;9.60;99.90;;;;;;5095972;28;20461;-56
2023/04/25 07:29:58;;;;;;;11.67;2.83;;;9.50;99.90;;;;;;5095862;28;20449;-56
2023/04/25 07:32:25;;;;;;;3.50;3.07;;;9.50;99.90;;;;;;5096109;28;20437;-55
2023/04/25 07:34:52;;;;;;;5.90;3.17;;;9.50;99.90;;;;;;5095684;28;20442;-51
2023/04/25 07:37:19;;;;;;;3.20;2.33;;;9.40;99.90;;;;;;5095554;28;20470;-55
2023/04/25 07:39:48;;;;;;;9.03;3.07;;;9.20;99.90;;;;;;5095916;28;20441;-56
2023/04/25 07:42:15;;;;;;;8.70;3.50;;;9.20;99.90;;;;;;5096169;28;20470;-54
2023/04/25 07:44:42;;;;;;;5.33;3.60;;;9.10;99.90;;;;;;5098593;28;20445;-57
2023/04/25 07:47:10;;;;;;;4.53;2.83;;;9.10;99.90;;;;;;5099132;28;20434;-56
2023/04/25 07:49:37;;;;;;;5.20;2.90;;;9.00;99.90;;;;;;5099139;28;20438;-58
2023/04/25 07:52:05;;;;;;;7.10;3.80;;;9.10;99.90;;;;;;5099121;28;20488;-56
2023/04/25 07:54:33;;;;;;;19.43;4.10;;;9.20;99.90;;;;;;5098856;28;20473;-61
2023/04/25 07:57:02;;;;;;;6.40;4.10;;;9.30;99.90;;;;;;5099325;28;20489;-60
2023/04/25 07:59:29;;;;;;;6.90;3.40;;;9.40;99.90;;;;;;5099541;28;20446;-52
2023/04/25 08:01:57;;;;;;;8.47;3.17;;;9.50;99.90;;;;;;5098947;28;20966;-55
2023/04/25 08:04:24;;;;;;;5.43;3.13;;;9.50;99.90;;;;;;5099049;28;20447;-55
2023/04/25 08:06:52;;;;;;;5.10;2.90;;;9.50;99.90;;;;;;5098791;28;20454;-55
2023/04/25 08:09:20;;;;;;;19.27;2.80;;;9.40;99.90;;;;;;5099025;28;20498;-52
2023/04/25 08:11:47;;;;;;;5.47;3.17;;;9.30;99.90;;;;;;5098403;28;20470;-51
2023/04/25 08:14:16;;;;;;;7.67;2.47;;;9.30;99.90;;;;;;5098387;28;20439;-56
2023/04/25 08:16:43;;;;;;;13.90;3.73;;;9.40;99.90;;;;;;5099037;28;20488;-55
2023/04/25 08:19:10;;;;;;;9.67;3.30;;;9.50;99.90;;;;;;5098770;28;20450;-53
2023/04/25 08:21:39;;;;;;;11.80;3.77;;;9.60;99.90;;;;;;5099013;28;20546;-51
2023/04/25 08:24:06;;;;;;;8.83;2.90;;;9.70;99.90;;;;;;5098442;28;20447;-52
2023/04/25 08:26:34;;;;;;;9.13;3.10;;;9.70;99.90;;;;;;5098644;28;20463;-57
2023/04/25 08:29:01;;;;;;;8.80;3.90;;;9.80;99.90;;;;;;5098493;28;20448;-56
2023/04/25 08:31:29;;;;;;;16.73;3.20;;;10.20;99.90;;;;;;5097942;28;20470;-56
2023/04/25 08:33:56;;;;;;;11.33;2.47;;;11.10;99.90;;;;;;5098408;28;20426;-56
2023/04/25 08:36:23;;;;;;;11.90;3.60;;;11.70;99.90;;;;;;5098497;28;20486;-57
2023/04/25 08:38:50;;;;;;;3.67;2.53;;;12.00;99.90;;;;;;5098417;28;20459;-56
2023/04/25 08:41:18;;;;;;;5.40;2.50;;;12.10;99.90;;;;;;5098304;28;20454;-56
2023/04/25 08:43:47;;;;;;;10.77;3.70;;;12.10;99.90;;;;;;5098442;28;20435;-56
2023/04/25 08:46:18;;;;;;;3.43;2.30;;;12.00;99.90;;;;;;5098253;28;20434;-55
2023/04/25 08:48:47;;;;;;;7.87;2.80;;;11.60;99.90;;;;;;5098139;28;20422;-53
2023/04/25 08:51:24;;;;;;;5.47;2.37;;;11.50;99.90;;;;;;5098084;28;20438;-52
2023/04/25 08:53:53;;;;;;;6.53;2.23;;;11.20;99.90;;;;;;5097854;28;20434;-54
2023/04/25 08:56:22;;;;;;;7.30;3.03;;;11.00;99.90;;;;;;5097749;28;20426;-54
2023/04/25 08:58:50;;;;;;;16.63;3.10;;;10.90;99.90;;;;;;5084340;28;20512;-56
2023/04/25 09:01:17;;;;;;;3.10;1.47;;;10.90;99.90;;;;;;5084472;28;20449;-52
2023/04/25 09:03:47;;;;;;;7.60;2.73;;;11.50;99.90;;;;;;5092011;28;20470;-53
2023/04/25 09:06:16;;;;;;;4.57;2.40;;;12.10;99.90;;;;;;5095350;28;20465;-52
2023/04/25 09:08:43;;;;;;;10.43;2.40;;;12.90;99.90;;;;;;5096333;28;20441;-56
2023/04/25 09:11:10;;;;;;;4.30;1.80;;;14.00;99.90;;;;;;5093657;28;20537;-49
2023/04/25 09:13:37;;;;;;;7.17;2.53;;;15.20;96.30;;;;;;5093365;28;20449;-53
2023/04/25 09:16:04;;;;;;;7.80;2.50;;;15.80;90.60;;;;;;5092100;28;20478;-53
2023/04/25 09:18:32;;;;;;;7.30;2.00;;;16.40;86.40;;;;;;5093132;28;20498;-55
2023/04/25 09:21:07;;;;;;;5.80;2.70;;;17.10;82.30;;;;;;5095910;28;20418;-50
2023/04/25 09:23:41;;;;;;;8.33;2.10;;;17.40;75.80;;;;;;5097275;28;20476;-55
2023/04/25 09:26:08;;;;;;;8.23;2.80;;;18.10;70.00;;;;;;5097390;28;20418;-55
2023/04/25 09:28:37;;;;;;;6.17;2.40;;;18.10;67.00;;;;;;5097096;28;20473;-51
2023/04/25 09:31:04;;;;;;;16.07;2.00;;;18.30;65.70;;;;;;5096370;28;20442;-53
2023/04/25 09:33:33;;;;;;;8.77;2.80;;;18.70;63.50;;;;;;5096103;28;20454;-52
2023/04/25 09:36:06;;;;;;;5.67;3.30;;;18.70;60.30;;;;;;5096038;28;20438;-51
2023/04/25 09:38:41;;;;;;;4.70;3.30;;;18.20;61.60;;;;;;5096395;28;20474;-53
2023/04/25 09:41:08;;;;;;;5.80;2.87;;;18.10;60.80;;;;;;5096491;28;20473;-51
2023/04/25 09:43:37;;;;;;;6.07;3.43;;;17.70;62.70;;;;;;5096127;28;20462;-51
2023/04/25 09:46:09;;;;;;;4.30;2.30;;;17.10;64.10;;;;;;5096529;28;20438;-55
2023/04/25 09:48:36;;;;;;;4.33;2.03;;;16.60;65.80;;;;;;5096650;28;20466;-56
2023/04/25 09:51:12;;;;;;;5.83;2.20;;;16.10;68.00;;;;;;5096795;28;20439;-54
2023/04/25 09:53:40;;;;;;;14.30;2.00;;;15.50;70.00;;;;;;5097240;28;20482;-50
2023/04/25 09:56:10;;;;;;;5.10;2.40;;;14.50;73.20;;;;;;5095515;28;20443;-55
2023/04/25 09:58:38;;;;;;;12.23;2.77;;;13.90;75.80;;;;;;5096874;28;20485;-57
2023/04/25 10:01:07;;;;;;;8.80;2.20;;;13.50;78.00;;;;;;5097083;28;20434;-57
2023/04/25 10:03:36;;;;;;;7.07;3.17;;;13.30;79.00;;;;;;5097383;28;20553;-56
2023/04/25 10:06:06;;;;;;;9.70;2.30;;;13.10;79.90;;;;;;5096545;28;20453;-54
2023/04/25 10:08:37;;;;;;;5.70;1.77;;;13.20;83.40;;;;;;5097104;28;20569;-57
2023/04/25 10:11:05;;;;;;;6.67;1.93;;;13.50;84.00;;;;;;5096858;28;20423;-55
2023/04/25 10:13:33;;;;;;;12.33;2.27;;;14.10;80.90;;;;;;5096784;28;20454;-56
2023/04/25 10:16:01;;;;;;;10.40;2.50;;;15.00;76.30;;;;;;5096630;28;20472;-52
2023/04/25 10:18:29;;;;;;;5.93;1.80;;;15.10;72.90;;;;;;5096891;28;20520;-54
2023/04/25 10:20:59;;;;;;;4.70;1.90;;;14.60;71.70;;;;;;5096603;28;20434;-56
2023/04/25 10:23:27;;;;;;;5.37;2.03;;;14.10;72.90;;;;;;5096763;28;20472;-53
2023/04/25 10:25:55;;;;;;;4.13;2.13;;;13.70;73.10;;;;;;5096889;28;20439;-51
2023/04/25 10:28:22;;;;;;;5.57;2.17;;;13.40;74.40;;;;;;5096666;28;20445;-55
2023/04/25 10:31:00;;;;;;;7.57;3.40;;;13.00;76.30;;;;;;5096203;28;20463;-51
2023/04/25 10:33:37;;;;;;;4.50;2.50;;;12.80;77.00;;;;;;5096711;28;20473;-54
2023/04/25 10:36:15;;;;;;;4.90;1.60;;;12.50;77.00;;;;;;5096995;28;20430;-51
2023/04/25 10:38:44;;;;;;;5.97;2.50;;;12.30;79.00;;;;;;5096281;28;20482;-55
2023/04/25 10:41:14;;;;;;;4.10;2.07;;;12.10;80.20;;;;;;5096213;28;20426;-56
2023/04/25 10:43:42;;;;;;;8.03;1.57;;;11.90;82.70;;;;;;5095940;28;20451;-56
2023/04/25 10:46:17;;;;;;;2.20;1.40;;;11.90;84.50;;;;;;5095702;28;20438;-58
2023/04/25 10:48:51;;;;;;;7.30;2.00;;;11.80;84.40;;;;;;5095930;28;20462;-56
2023/04/25 10:51:20;;;;;;;6.00;2.17;;;11.70;85.70;;;;;;5096523;28;20422;-53
2023/04/25 10:53:48;;;;;;;3.30;1.40;;;11.60;87.30;;;;;;5095931;28;20473;-53
2023/04/25 10:56:21;;;;;;;8.20;2.30;;;11.50;88.80;;;;;;5096179;28;20431;-57
2023/04/25 10:58:48;;;;;;;3.30;2.03;;;11.40;90.10;;;;;;5096029;28;20489;-56
2023/04/25 11:01:16;;;;;;;4.40;1.17;;;11.40;90.80;;;;;;5096244;28;20577;-53
2023/04/25 11:03:44;;;;;;;7.60;2.00;;;11.40;89.50;;;;;;5096146;28;20446;-54
2023/04/25 11:06:21;;;;;;;4.57;1.87;;;11.40;90.10;;;;;;5096255;28;20453;-55
2023/04/25 11:08:50;;;;;;;4.53;2.50;;;11.50;90.90;;;;;;5096131;28;20462;-55
2023/04/25 11:11:19;;;;;;;10.20;2.53;;;11.80;90.90;;;;;;5095826;28;20430;-56
2023/04/25 11:13:49;;;;;;;7.17;1.47;;;12.10;90.40;;;;;;5096092;28;20445;-58
2023/04/25 11:16:16;;;;;;;8.00;1.93;;;12.20;89.80;;;;;;5096083;28;20446;-52
2023/04/25 11:18:44;;;;;;;5.23;1.83;;;12.10;88.80;;;;;;5099573;28;20532;-53
2023/04/25 11:21:11;;;;;;;4.97;1.80;;;12.00;89.80;;;;;;5099689;28;20418;-53
2023/04/25 11:23:38;;;;;;;15.90;3.50;;;11.80;89.30;;;;;;5099598;28;20452;-54
2023/04/25 11:26:05;;;;;;;6.93;1.70;;;11.80;90.10;;;;;;5099972;28;20450;-52
2023/04/25 11:28:33;;;;;;;7.10;2.50;;;11.80;89.50;;;;;;5099613;28;20435;-52
2023/04/25 11:31:00;;;;;;;3.80;1.90;;;11.70;90.40;;;;;;5099171;28;20441;-54
2023/04/25 11:33:28;;;;;;;4.73;2.17;;;11.60;92.60;;;;;;5099443;28;20449;-53
2023/04/25 11:35:56;;;;;;;6.03;2.10;;;11.40;91.10;;;;;;5099388;28;20449;-54
2023/04/25 11:38:23;;;;;;;1.97;1.17;;;11.20;90.10;;;;;;5099547;28;20477;-52
2023/04/25 11:40:53;;;;;;;7.30;2.00;;;11.00;87.00;;;;;;5099106;28;20505;-56
2023/04/25 11:43:22;;;;;;;4.27;1.80;;;10.80;85.20;;;;;;5099211;28;20472;-54
2023/04/25 11:45:52;;;;;;;2.10;1.13;;;10.70;85.40;;;;;;5099354;28;20453;-55
2023/04/25 11:48:20;;;;;;;2.33;1.80;;;10.80;85.60;;;;;;5099435;28;20561;-54
2023/04/25 11:50:47;;;;;;;2.93;1.33;;;10.80;83.80;;;;;;5099327;28;20446;-53
2023/04/25 11:53:14;;;;;;;4.10;1.87;;;10.90;85.40;;;;;;5099289;28;20421;-53
2023/04/25 11:55:43;;;;;;;2.33;1.40;;;10.90;82.90;;;;;;5099025;28;20500;-52
2023/04/25 11:58:09;;;;;;;3.93;2.00;;;10.90;82.40;;;;;;5098874;28;20480;-54
2023/04/25 12:00:36;;;;;;;2.30;1.40;;;11.10;82.50;;;;;;5099052;28;20492;-51
2023/04/25 12:03:05;;;;;;;3.23;1.57;;;11.20;80.00;;;;;;5099459;28;20447;-52
2023/04/25 12:05:42;;;;;;;10.17;1.60;;;11.10;79.00;;;;;;5099195;28;20458;-51
2023/04/25 12:08:13;;;;;;;6.30;2.00;;;11.00;80.10;;;;;;5099410;28;20422;-50
2023/04/25 12:10:41;;;;;;;4.33;1.70;;;11.10;81.20;;;;;;5099019;28;20454;-53
2023/04/25 12:13:24;;;;;;;5.13;1.80;;;11.10;82.30;;;;;;5098929;28;20439;-52
2023/04/25 12:15:51;;;;;;;4.37;1.93;;;11.20;82.60;;;;;;5098761;28;20474;-56
2023/04/25 12:18:23;;;;;;;2.70;1.40;;;11.20;82.10;;;;;;5098433;28;20502;-53
2023/04/25 12:20:50;;;;;;;4.23;1.60;;;11.20;83.40;;;;;;5098642;28;20466;-52
2023/04/25 12:23:18;;;;;;;4.27;1.80;;;11.20;84.40;;;;;;5098681;28;20447;-54
2023/04/25 12:25:46;;;;;;;5.07;1.80;;;11.10;84.90;;;;;;5098285;28;20496;-53
2023/04/25 12:28:15;;;;;;;5.40;1.83;;;11.20;85.70;;;;;;5097929;28;20426;-52
2023/04/25 12:30:59;;;;;;;10.97;4.93;;;11.50;85.20;;;;;;5098587;28;20442;-54
2023/04/25 12:33:30;;;;;;;7.40;2.47;;;11.70;81.80;;;;;;5098574;28;20418;-55
2023/04/25 12:35:57;;;;;;;7.20;1.93;;;11.90;82.20;;;;;;5098203;28;20526;-50
2023/04/25 12:38:26;;;;;;;3.60;1.87;;;12.00;77.40;;;;;;5098336;28;20473;-49
2023/04/25 12:40:53;;;;;;;4.47;1.90;;;12.10;76.60;;;;;;5098484;28;20470;-54
2023/04/25 12:43:20;;;;;;;10.97;1.93;;;12.20;74.40;;;;;;5098591;28;20427;-54
2023/04/25 12:45:48;;;;;;;3.97;1.93;;;12.20;73.80;;;;;;5098426;28;20446;-53
2023/04/25 12:48:15;;;;;;;3.60;1.50;;;12.20;74.90;;;;;;5098399;28;20518;-52
2023/04/25 12:50:44;;;;;;;4.20;1.77;;;12.40;76.30;;;;;;5098460;28;20455;-56
2023/04/25 12:53:11;;;;;;;5.50;2.00;;;12.60;75.50;;;;;;5098742;28;20438;-55
2023/04/25 12:55:38;;;;;;;5.97;1.90;;;12.50;76.30;;;;;;5097984;28;20458;-54
2023/04/25 12:58:07;;;;;;;3.00;1.50;;;12.20;74.90;;;;;;5098654;28;20415;-54